createdAt,value
2018-05-31T00:00:45.090Z,21.82
2018-05-31T00:01:45.100Z,21.81
2018-05-31T00:02:44.806Z,21.76
2018-05-31T00:03:44.794Z,21.85
2018-05-31T00:04:44.799Z,21.79
2018-05-31T00:05:44.508Z,21.85
2018-05-31T00:06:44.770Z,21.88
2018-05-31T00:07:44.767Z,21.82
2018-05-31T00:08:45.033Z,21.82
2018-05-31T00:09:44.742Z,21.72
2018-05-31T00:10:44.744Z,21.76
2018-05-31T00:11:44.993Z,21.74
2018-05-31T00:12:45.020Z,21.75
2018-05-31T00:13:44.440Z,21.63
2018-05-31T00:14:44.710Z,21.67
2018-05-31T00:15:45.307Z,21.71
2018-05-31T00:16:45.317Z,21.64
2018-05-31T00:17:44.684Z,21.74
2018-05-31T00:18:44.961Z,21.63
2018-05-31T00:19:44.668Z,21.6
2018-05-31T00:20:44.923Z,21.6
2018-05-31T00:21:44.918Z,21.53
2018-05-31T00:22:44.637Z,21.56
2018-05-31T00:23:44.922Z,21.53
2018-05-31T00:24:44.890Z,21.54
2018-05-31T00:25:44.339Z,21.39
2018-05-31T00:26:44.881Z,21.39
2018-05-31T00:27:44.883Z,21.35
2018-05-31T00:28:44.866Z,21.41
2018-05-31T00:29:44.854Z,21.41
2018-05-31T00:30:44.881Z,21.38
2018-05-31T00:31:44.836Z,21.35
2018-05-31T00:32:44.570Z,21.35
2018-05-31T00:33:44.269Z,21.36
2018-05-31T00:34:45.036Z,21.39
2018-05-31T00:35:44.524Z,21.36
2018-05-31T00:36:44.720Z,21.27
2018-05-31T00:37:44.510Z,21.41
2018-05-31T00:38:44.506Z,21.27
2018-05-31T00:39:44.493Z,21.34
2018-05-31T00:40:44.746Z,21.3
2018-05-31T00:41:44.780Z,21.38
2018-05-31T00:42:44.459Z,21.34
2018-05-31T00:43:45.740Z,21.27
2018-05-31T00:44:44.454Z,21.38
2018-05-31T00:45:44.713Z,21.35
2018-05-31T00:46:44.431Z,21.36
2018-05-31T00:47:44.147Z,21.39
2018-05-31T00:48:44.678Z,21.26
2018-05-31T00:49:44.410Z,21.34
2018-05-31T00:50:44.441Z,21.35
2018-05-31T00:51:44.660Z,21.26
2018-05-31T00:52:44.700Z,21.35
2018-05-31T00:53:44.416Z,21.3
2018-05-31T00:54:44.359Z,21.34
2018-05-31T00:55:44.361Z,21.26
2018-05-31T00:56:44.329Z,21.24
2018-05-31T00:57:44.329Z,21.23
2018-05-31T00:58:44.321Z,21.2
2018-05-31T00:59:44.598Z,21.13
2018-05-31T01:00:44.585Z,21.06
2018-05-31T01:01:44.348Z,21.09
2018-05-31T01:02:44.649Z,21.05
2018-05-31T01:03:44.570Z,21.13
2018-05-31T01:04:44.271Z,21.04
2018-05-31T01:05:43.993Z,21.09
2018-05-31T01:06:43.986Z,21.09
2018-05-31T01:07:44.250Z,21.02
2018-05-31T01:08:44.516Z,21.02
2018-05-31T01:09:44.522Z,21.02
2018-05-31T01:10:44.716Z,20.95
2018-05-31T01:11:44.205Z,20.96
2018-05-31T01:12:44.205Z,20.98
2018-05-31T01:13:44.473Z,20.93
2018-05-31T01:14:44.187Z,21.02
2018-05-31T01:15:44.177Z,20.96
2018-05-31T01:16:44.208Z,20.93
2018-05-31T01:17:44.430Z,20.9
2018-05-31T01:18:43.873Z,20.86
2018-05-31T01:19:44.132Z,20.86
2018-05-31T01:20:44.958Z,20.83
2018-05-31T01:21:44.401Z,20.89
2018-05-31T01:22:44.388Z,20.87
2018-05-31T01:23:44.374Z,20.8
2018-05-31T01:24:44.372Z,20.84
2018-05-31T01:25:43.810Z,20.79
2018-05-31T01:26:43.802Z,20.79
2018-05-31T01:27:44.393Z,20.83
2018-05-31T01:28:44.050Z,20.68
2018-05-31T01:29:45.383Z,20.8
2018-05-31T01:30:43.769Z,20.74
2018-05-31T01:31:44.034Z,20.8
2018-05-31T01:32:44.016Z,20.77
2018-05-31T01:33:44.009Z,20.72
2018-05-31T01:34:44.005Z,20.68
2018-05-31T01:35:43.999Z,20.69
2018-05-31T01:36:43.982Z,20.66
2018-05-31T01:37:43.698Z,20.64
2018-05-31T01:38:44.936Z,20.61
2018-05-31T01:39:43.953Z,20.53
2018-05-31T01:40:44.247Z,20.53
2018-05-31T01:41:43.666Z,20.41
2018-05-31T01:42:43.923Z,20.51
2018-05-31T01:43:43.649Z,20.43
2018-05-31T01:44:43.906Z,20.51
2018-05-31T01:45:43.636Z,20.38
2018-05-31T01:46:43.892Z,20.43
2018-05-31T01:47:44.504Z,20.41
2018-05-31T01:48:44.140Z,20.41
2018-05-31T01:49:43.861Z,20.46
2018-05-31T01:50:44.143Z,20.46
2018-05-31T01:51:43.848Z,20.35
2018-05-31T01:52:43.847Z,20.47
2018-05-31T01:53:43.551Z,20.43
2018-05-31T01:54:43.541Z,20.5
2018-05-31T01:55:44.070Z,20.42
2018-05-31T01:56:44.616Z,20.43
2018-05-31T01:57:43.784Z,20.42
2018-05-31T01:58:44.080Z,20.39
2018-05-31T01:59:44.053Z,20.41
2018-05-31T02:00:44.037Z,20.47
2018-05-31T02:01:43.480Z,20.49
2018-05-31T02:02:43.740Z,20.38
2018-05-31T02:03:43.454Z,20.42
2018-05-31T02:04:43.722Z,20.46
2018-05-31T02:05:44.159Z,20.41
2018-05-31T02:06:43.703Z,20.34
2018-05-31T02:07:43.993Z,20.35
2018-05-31T02:08:43.986Z,20.39
2018-05-31T02:09:43.415Z,20.49
2018-05-31T02:10:43.665Z,20.39
2018-05-31T02:11:43.658Z,20.41
2018-05-31T02:12:43.651Z,20.34
2018-05-31T02:13:43.916Z,20.39
2018-05-31T02:14:44.256Z,20.35
2018-05-31T02:15:43.899Z,20.38
2018-05-31T02:16:43.335Z,20.42
2018-05-31T02:17:43.335Z,20.42
2018-05-31T02:18:43.591Z,20.46
2018-05-31T02:19:43.309Z,20.38
2018-05-31T02:20:43.575Z,20.43
2018-05-31T02:21:43.293Z,20.31
2018-05-31T02:22:43.551Z,20.33
2018-05-31T02:23:43.271Z,20.28
2018-05-31T02:24:44.474Z,20.25
2018-05-31T02:25:43.795Z,20.24
2018-05-31T02:26:43.530Z,20.25
2018-05-31T02:27:43.786Z,20.21
2018-05-31T02:28:43.508Z,20.21
2018-05-31T02:29:43.492Z,20.23
2018-05-31T02:30:43.502Z,20.23
2018-05-31T02:31:43.741Z,20.27
2018-05-31T02:32:43.870Z,20.23
2018-05-31T02:33:43.454Z,20.24
2018-05-31T02:34:43.458Z,20.23
2018-05-31T02:35:43.431Z,20.2
2018-05-31T02:36:43.635Z,20.25
2018-05-31T02:37:43.146Z,20.21
2018-05-31T02:38:43.684Z,20.27
2018-05-31T02:39:43.681Z,20.27
2018-05-31T02:40:43.113Z,20.23
2018-05-31T02:41:43.381Z,20.21
2018-05-31T02:42:44.278Z,20.23
2018-05-31T02:43:43.638Z,20.18
2018-05-31T02:44:43.079Z,20.31
2018-05-31T02:45:43.352Z,20.27
2018-05-31T02:46:43.061Z,20.27
2018-05-31T02:47:43.607Z,20.24
2018-05-31T02:48:43.597Z,20.23
2018-05-31T02:49:43.308Z,20.25
2018-05-31T02:50:43.288Z,20.23
2018-05-31T02:51:44.055Z,20.24
2018-05-31T02:52:43.295Z,20.21
2018-05-31T02:53:43.038Z,20.23
2018-05-31T02:54:43.527Z,20.18
2018-05-31T02:55:43.539Z,20.23
2018-05-31T02:56:43.249Z,20.27
2018-05-31T02:57:43.223Z,20.16
2018-05-31T02:58:43.213Z,20.21
2018-05-31T02:59:43.212Z,20.24
2018-05-31T03:00:42.917Z,20.24
2018-05-31T03:01:43.192Z,20.21
2018-05-31T03:02:43.454Z,20.15
2018-05-31T03:03:43.444Z,20.13
2018-05-31T03:04:42.886Z,20.2
2018-05-31T03:05:43.421Z,20.09
2018-05-31T03:06:43.406Z,20.08
2018-05-31T03:07:43.240Z,20.12
2018-05-31T03:08:43.386Z,20.06
2018-05-31T03:09:43.958Z,20.06
2018-05-31T03:10:43.095Z,20.06
2018-05-31T03:11:43.372Z,20.05
2018-05-31T03:12:43.091Z,20.1
2018-05-31T03:13:43.081Z,20.08
2018-05-31T03:14:43.353Z,20.09
2018-05-31T03:15:43.053Z,20.02
2018-05-31T03:16:43.048Z,20.06
2018-05-31T03:17:42.761Z,20.08
2018-05-31T03:18:44.415Z,20.03
2018-05-31T03:19:43.291Z,20.06
2018-05-31T03:20:43.291Z,20.06
2018-05-31T03:21:43.341Z,20.05
2018-05-31T03:22:42.714Z,20.08
2018-05-31T03:23:42.982Z,20.1
2018-05-31T03:24:42.972Z,20.09
2018-05-31T03:25:42.980Z,20.06
2018-05-31T03:26:42.952Z,20.15
2018-05-31T03:27:42.940Z,20.13
2018-05-31T03:28:42.936Z,20.16
2018-05-31T03:29:42.962Z,20.16
2018-05-31T03:30:42.912Z,20.13
2018-05-31T03:31:43.247Z,20.2
2018-05-31T03:32:42.913Z,20.16
2018-05-31T03:33:42.959Z,20.2
2018-05-31T03:34:42.868Z,20.18
2018-05-31T03:35:42.865Z,20.1
2018-05-31T03:36:43.484Z,20.12
2018-05-31T03:37:42.844Z,20.13
2018-05-31T03:38:43.111Z,20.18
2018-05-31T03:39:42.827Z,20.15
2018-05-31T03:40:42.825Z,20.15
2018-05-31T03:41:42.812Z,20.13
2018-05-31T03:42:43.065Z,20.13
2018-05-31T03:43:42.515Z,20.13
2018-05-31T03:44:42.860Z,20.09
2018-05-31T03:45:43.699Z,20.08
2018-05-31T03:46:43.024Z,20.27
2018-05-31T03:47:42.516Z,20.21
2018-05-31T03:48:42.472Z,20.23
2018-05-31T03:49:43.010Z,20.24
2018-05-31T03:50:42.723Z,20.25
2018-05-31T03:51:42.984Z,20.28
2018-05-31T03:52:42.704Z,20.23
2018-05-31T03:53:43.150Z,20.24
2018-05-31T03:54:42.684Z,20.23
2018-05-31T03:55:42.942Z,20.25
2018-05-31T03:56:42.925Z,20.25
2018-05-31T03:57:42.655Z,20.23
2018-05-31T03:58:42.930Z,20.24
2018-05-31T03:59:42.362Z,20.25
2018-05-31T04:00:42.628Z,20.2
2018-05-31T04:01:42.621Z,20.3
2018-05-31T04:02:43.052Z,20.3
2018-05-31T04:03:43.500Z,20.3
2018-05-31T04:04:42.591Z,20.28
2018-05-31T04:05:42.579Z,20.25
2018-05-31T04:06:42.576Z,20.31
2018-05-31T04:07:42.551Z,20.28
2018-05-31T04:08:42.558Z,20.25
2018-05-31T04:09:42.813Z,20.28
2018-05-31T04:10:42.532Z,20.25
2018-05-31T04:11:42.674Z,20.31
2018-05-31T04:12:43.366Z,20.28
2018-05-31T04:13:42.232Z,20.3
2018-05-31T04:14:42.526Z,20.39
2018-05-31T04:15:42.757Z,20.35
2018-05-31T04:16:42.472Z,20.42
2018-05-31T04:17:42.470Z,20.34
2018-05-31T04:18:42.457Z,20.39
2018-05-31T04:19:42.173Z,20.34
2018-05-31T04:20:42.440Z,20.35
2018-05-31T04:21:42.440Z,20.49
2018-05-31T04:22:42.433Z,20.46
2018-05-31T04:23:42.681Z,20.41
2018-05-31T04:24:42.679Z,20.53
2018-05-31T04:25:42.403Z,20.54
2018-05-31T04:26:42.392Z,20.49
2018-05-31T04:27:42.385Z,20.59
2018-05-31T04:28:42.373Z,20.61
2018-05-31T04:29:42.831Z,20.61
2018-05-31T04:30:42.348Z,20.59
2018-05-31T04:31:42.329Z,20.68
2018-05-31T04:32:42.331Z,20.59
2018-05-31T04:33:42.440Z,20.62
2018-05-31T04:34:42.583Z,20.66
2018-05-31T04:35:42.316Z,20.69
2018-05-31T04:36:42.221Z,20.69
2018-05-31T04:37:42.297Z,20.79
2018-05-31T04:38:42.298Z,20.74
2018-05-31T04:39:43.077Z,20.8
2018-05-31T04:40:42.259Z,20.8
2018-05-31T04:41:42.519Z,20.79
2018-05-31T04:42:42.232Z,20.86
2018-05-31T04:43:42.494Z,20.87
2018-05-31T04:44:42.512Z,20.87
2018-05-31T04:45:42.473Z,20.89
2018-05-31T04:46:42.211Z,20.87
2018-05-31T04:47:42.937Z,20.9
2018-05-31T04:48:42.181Z,20.98
2018-05-31T04:49:42.181Z,20.93
2018-05-31T04:50:42.446Z,21.05
2018-05-31T04:51:42.156Z,21.09
2018-05-31T04:52:41.873Z,21.08
2018-05-31T04:53:42.140Z,21.05
2018-05-31T04:54:42.412Z,21.13
2018-05-31T04:55:42.121Z,21.05
2018-05-31T04:56:42.825Z,21.14
2018-05-31T04:57:41.828Z,21.23
2018-05-31T04:58:42.091Z,21.23
2018-05-31T04:59:42.359Z,21.26
2018-05-31T05:00:42.146Z,21.29
2018-05-31T05:01:42.340Z,21.29
2018-05-31T05:02:41.786Z,21.29
2018-05-31T05:03:42.049Z,21.27
2018-05-31T05:04:42.314Z,21.27
2018-05-31T05:05:42.792Z,21.29
2018-05-31T05:06:42.300Z,21.3
2018-05-31T05:07:42.022Z,21.29
2018-05-31T05:08:42.014Z,21.32
2018-05-31T05:09:42.048Z,21.35
2018-05-31T05:10:41.715Z,21.34
2018-05-31T05:11:42.249Z,21.32
2018-05-31T05:12:42.244Z,21.23
2018-05-31T05:13:42.228Z,21.36
2018-05-31T05:14:42.496Z,21.39
2018-05-31T05:15:42.202Z,21.45
2018-05-31T05:16:42.238Z,21.42
2018-05-31T05:17:41.945Z,21.38
2018-05-31T05:18:42.208Z,21.5
2018-05-31T05:19:42.190Z,21.56
2018-05-31T05:20:41.907Z,21.56
2018-05-31T05:21:42.181Z,21.57
2018-05-31T05:22:42.173Z,21.59
2018-05-31T05:23:42.197Z,21.6
2018-05-31T05:24:42.143Z,21.66
2018-05-31T05:25:42.143Z,21.63
2018-05-31T05:26:42.150Z,21.76
2018-05-31T05:27:42.126Z,21.74
2018-05-31T05:28:41.558Z,21.76
2018-05-31T05:29:41.824Z,21.76
2018-05-31T05:30:41.541Z,21.76
2018-05-31T05:31:41.845Z,21.81
2018-05-31T05:32:41.521Z,21.91
2018-05-31T05:33:42.055Z,21.91
2018-05-31T05:34:42.065Z,21.9
2018-05-31T05:35:42.052Z,21.97
2018-05-31T05:36:42.071Z,22.01
2018-05-31T05:37:42.048Z,21.92
2018-05-31T05:38:42.085Z,21.99
2018-05-31T05:39:41.738Z,22.1
2018-05-31T05:40:41.722Z,22.01
2018-05-31T05:41:42.023Z,22.09
2018-05-31T05:42:41.725Z,22.17
2018-05-31T05:43:42.090Z,22.17
2018-05-31T05:44:41.701Z,22.2
2018-05-31T05:45:41.966Z,22.17
2018-05-31T05:46:41.693Z,22.28
2018-05-31T05:47:41.405Z,22.34
2018-05-31T05:48:41.935Z,22.32
2018-05-31T05:49:41.390Z,22.27
2018-05-31T05:50:41.377Z,22.27
2018-05-31T05:51:41.651Z,22.34
2018-05-31T05:52:41.683Z,22.32
2018-05-31T05:53:41.887Z,22.32
2018-05-31T05:54:41.620Z,22.38
2018-05-31T05:55:41.897Z,22.46
2018-05-31T05:56:41.900Z,22.47
2018-05-31T05:57:41.319Z,22.5
2018-05-31T05:58:41.855Z,22.52
2018-05-31T05:59:42.141Z,22.53
2018-05-31T06:00:41.834Z,22.6
2018-05-31T06:01:41.564Z,22.57
2018-05-31T06:02:41.558Z,22.56
2018-05-31T06:03:41.546Z,22.59
2018-05-31T06:04:41.535Z,22.65
2018-05-31T06:05:41.847Z,22.54
2018-05-31T06:06:41.790Z,22.68
2018-05-31T06:07:41.584Z,22.74
2018-05-31T06:08:42.049Z,22.83
2018-05-31T06:09:41.495Z,22.84
2018-05-31T06:10:41.482Z,22.9
2018-05-31T06:11:41.779Z,22.89
2018-05-31T06:12:41.481Z,22.92
2018-05-31T06:13:41.466Z,23.01
2018-05-31T06:14:41.733Z,23.05
2018-05-31T06:15:41.729Z,23.14
2018-05-31T06:16:41.782Z,23.12
2018-05-31T06:17:42.261Z,23.24
2018-05-31T06:18:41.150Z,23.26
2018-05-31T06:19:41.475Z,23.31
2018-05-31T06:20:41.412Z,23.4
2018-05-31T06:21:41.671Z,23.35
2018-05-31T06:22:41.676Z,23.34
2018-05-31T06:23:41.115Z,23.35
2018-05-31T06:24:41.832Z,23.4
2018-05-31T06:25:42.004Z,23.49
2018-05-31T06:26:41.642Z,23.53
2018-05-31T06:27:41.657Z,23.55
2018-05-31T06:28:41.809Z,23.6
2018-05-31T06:29:41.392Z,23.57
2018-05-31T06:30:41.620Z,23.61
2018-05-31T06:31:41.599Z,23.68
2018-05-31T06:32:41.055Z,23.62
2018-05-31T06:33:41.044Z,23.64
2018-05-31T06:34:41.298Z,23.76
2018-05-31T06:35:41.297Z,23.77
2018-05-31T06:36:41.787Z,23.83
2018-05-31T06:37:41.281Z,23.8
2018-05-31T06:38:41.588Z,23.86
2018-05-31T06:39:41.538Z,23.92
2018-05-31T06:40:41.528Z,23.92
2018-05-31T06:41:41.517Z,23.95
2018-05-31T06:42:41.294Z,23.95
2018-05-31T06:43:41.246Z,23.95
2018-05-31T06:44:41.234Z,24.01
2018-05-31T06:45:41.225Z,24.08
2018-05-31T06:46:41.492Z,24.07
2018-05-31T06:47:41.477Z,24.08
2018-05-31T06:48:41.483Z,24.16
2018-05-31T06:49:41.469Z,24.19
2018-05-31T06:50:41.463Z,24.19
2018-05-31T06:51:41.199Z,24.22
2018-05-31T06:52:41.445Z,24.32
2018-05-31T06:53:41.177Z,24.32
2018-05-31T06:54:41.434Z,24.41
2018-05-31T06:55:40.895Z,24.42
2018-05-31T06:56:41.154Z,24.42
2018-05-31T06:57:41.148Z,24.42
2018-05-31T06:58:41.419Z,24.47
2018-05-31T06:59:41.606Z,24.52
2018-05-31T07:00:41.413Z,24.54
2018-05-31T07:01:40.856Z,24.56
2018-05-31T07:02:41.116Z,24.63
2018-05-31T07:03:41.260Z,24.67
2018-05-31T07:04:41.116Z,24.61
2018-05-31T07:05:41.313Z,24.69
2018-05-31T07:06:41.355Z,24.61
2018-05-31T07:07:41.085Z,24.63
2018-05-31T07:08:41.139Z,24.64
2018-05-31T07:09:41.076Z,24.76
2018-05-31T07:10:40.803Z,24.73
2018-05-31T07:11:41.054Z,24.8
2018-05-31T07:12:41.052Z,24.77
2018-05-31T07:13:41.049Z,24.8
2018-05-31T07:14:41.045Z,24.76
2018-05-31T07:15:40.780Z,24.85
2018-05-31T07:16:41.299Z,24.88
2018-05-31T07:17:41.023Z,24.9
2018-05-31T07:18:41.280Z,24.97
2018-05-31T07:19:41.276Z,25
2018-05-31T07:20:41.273Z,24.98
2018-05-31T07:21:40.996Z,24.91
2018-05-31T07:22:41.260Z,25.05
2018-05-31T07:23:41.252Z,24.97
2018-05-31T07:24:41.296Z,25.07
2018-05-31T07:25:41.236Z,25.05
2018-05-31T07:26:40.968Z,25.05
2018-05-31T07:27:41.230Z,25.25
2018-05-31T07:28:40.956Z,25.77
2018-05-31T07:29:40.953Z,26.59
2018-05-31T07:30:40.949Z,27.33
2018-05-31T07:31:41.207Z,27.94
2018-05-31T07:32:41.206Z,28.58
2018-05-31T07:33:40.935Z,29.19
2018-05-31T07:34:41.207Z,29.57
2018-05-31T07:35:41.197Z,30.08
2018-05-31T07:36:41.189Z,30.57
2018-05-31T07:37:40.923Z,30.81
2018-05-31T07:38:41.004Z,31.21
2018-05-31T07:39:40.916Z,31.5
2018-05-31T07:40:40.910Z,32
2018-05-31T07:41:40.911Z,32.27
2018-05-31T07:42:40.906Z,32.14
2018-05-31T07:43:41.174Z,32.29
2018-05-31T07:44:41.172Z,31.98
2018-05-31T07:45:40.912Z,31.67
2018-05-31T07:46:40.628Z,31.43
2018-05-31T07:47:41.176Z,31.13
2018-05-31T07:48:40.889Z,30.59
2018-05-31T07:49:40.887Z,30.4
2018-05-31T07:50:40.620Z,30.98
2018-05-31T07:51:41.006Z,30.89
2018-05-31T07:52:40.996Z,30.54
2018-05-31T07:53:40.636Z,30.05
2018-05-31T07:54:40.880Z,29.74
2018-05-31T07:55:41.142Z,29.7
2018-05-31T07:56:40.610Z,29.72
2018-05-31T07:57:41.137Z,29.94
2018-05-31T07:58:40.874Z,30.18
2018-05-31T07:59:40.879Z,30.45
2018-05-31T08:00:41.167Z,30.43
2018-05-31T08:01:40.865Z,30.83
2018-05-31T08:02:40.864Z,31.18
2018-05-31T08:03:41.128Z,31.01
2018-05-31T08:04:40.863Z,30.47
2018-05-31T08:05:41.205Z,30.21
2018-05-31T08:06:40.852Z,30.16
2018-05-31T08:07:40.852Z,29.87
2018-05-31T08:08:40.634Z,29.59
2018-05-31T08:09:40.584Z,29.34
2018-05-31T08:10:40.852Z,29.16
2018-05-31T08:11:40.584Z,29.13
2018-05-31T08:12:41.103Z,28.95
2018-05-31T08:13:41.152Z,28.9
2018-05-31T08:14:40.845Z,28.77
2018-05-31T08:15:40.837Z,28.69
2018-05-31T08:16:41.106Z,28.8
2018-05-31T08:17:41.093Z,29.03
2018-05-31T08:18:40.830Z,29.66
2018-05-31T08:19:40.827Z,30.36
2018-05-31T08:20:40.899Z,31.06
2018-05-31T08:21:41.087Z,31.54
2018-05-31T08:22:40.822Z,31.96
2018-05-31T08:23:40.551Z,32.48
2018-05-31T08:24:40.826Z,32.55
2018-05-31T08:25:40.822Z,32.25
2018-05-31T08:26:40.821Z,32
2018-05-31T08:27:40.812Z,31.64
2018-05-31T08:28:40.820Z,31.35
2018-05-31T08:29:40.812Z,31.21
2018-05-31T08:30:41.075Z,30.99
2018-05-31T08:31:41.600Z,30.69
2018-05-31T08:32:41.075Z,30.34
2018-05-31T08:33:40.551Z,30.05
2018-05-31T08:34:40.807Z,29.93
2018-05-31T08:35:41.071Z,29.66
2018-05-31T08:36:41.279Z,29.52
2018-05-31T08:37:40.538Z,29.31
2018-05-31T08:38:40.805Z,29.19
2018-05-31T08:39:40.800Z,29.38
2018-05-31T08:40:40.810Z,29.5
2018-05-31T08:41:41.061Z,29.74
2018-05-31T08:42:40.797Z,29.87
2018-05-31T08:43:41.059Z,30.03
2018-05-31T08:44:40.789Z,29.96
2018-05-31T08:45:40.527Z,29.86
2018-05-31T08:46:41.054Z,29.77
2018-05-31T08:47:40.785Z,29.68
2018-05-31T08:48:40.792Z,29.56
2018-05-31T08:49:41.052Z,29.56
2018-05-31T08:50:41.047Z,29.52
2018-05-31T08:51:40.784Z,29.45
2018-05-31T08:52:40.784Z,29.47
2018-05-31T08:53:41.050Z,29.43
2018-05-31T08:54:41.056Z,29.33
2018-05-31T08:55:41.043Z,29.11
2018-05-31T08:56:40.766Z,29.13
2018-05-31T08:57:41.031Z,29.1
2018-05-31T08:58:41.029Z,29.08
2018-05-31T08:59:40.765Z,29.16
2018-05-31T09:00:40.771Z,29.06
2018-05-31T09:01:40.763Z,29.01
2018-05-31T09:02:41.019Z,29.15
2018-05-31T09:03:40.756Z,29.13
2018-05-31T09:04:41.024Z,29.03
2018-05-31T09:05:40.750Z,29.18
2018-05-31T09:06:40.757Z,29.18
2018-05-31T09:07:40.758Z,29.15
2018-05-31T09:08:40.749Z,29.22
2018-05-31T09:09:41.062Z,29.22
2018-05-31T09:10:41.007Z,29.33
2018-05-31T09:11:41.007Z,29.22
2018-05-31T09:12:40.736Z,29.22
2018-05-31T09:13:40.993Z,29.34
2018-05-31T09:14:40.465Z,29.53
2018-05-31T09:15:40.994Z,29.62
2018-05-31T09:16:40.993Z,29.89
2018-05-31T09:17:40.993Z,30.09
2018-05-31T09:18:40.728Z,30.19
2018-05-31T09:19:40.999Z,30.29
2018-05-31T09:20:40.995Z,30.33
2018-05-31T09:21:40.454Z,30.33
2018-05-31T09:22:40.982Z,30.23
2018-05-31T09:23:40.457Z,30
2018-05-31T09:24:40.988Z,29.93
2018-05-31T09:25:40.717Z,29.87
2018-05-31T09:26:40.450Z,29.82
2018-05-31T09:27:40.976Z,29.78
2018-05-31T09:28:40.755Z,29.79
2018-05-31T09:29:40.499Z,29.89
2018-05-31T09:30:40.981Z,29.87
2018-05-31T09:31:40.451Z,29.9
2018-05-31T09:32:40.713Z,29.92
2018-05-31T09:33:40.971Z,29.97
2018-05-31T09:34:40.972Z,29.92
2018-05-31T09:35:40.976Z,30.02
2018-05-31T09:36:40.973Z,30.07
2018-05-31T09:37:40.703Z,30.07
2018-05-31T09:38:40.707Z,30.21
2018-05-31T09:39:40.437Z,30.19
2018-05-31T09:40:40.965Z,30.23
2018-05-31T09:41:40.974Z,30.02
2018-05-31T09:42:40.966Z,29.97
2018-05-31T09:43:40.435Z,29.89
2018-05-31T09:44:40.968Z,29.97
2018-05-31T09:45:40.697Z,30.07
2018-05-31T09:46:40.763Z,30.05
2018-05-31T09:47:40.693Z,30.14
2018-05-31T09:48:40.956Z,30.21
2018-05-31T09:49:40.954Z,30.4
2018-05-31T09:50:40.970Z,30.43
2018-05-31T09:51:40.683Z,30.47
2018-05-31T09:52:40.956Z,30.68
2018-05-31T09:53:40.951Z,30.76
2018-05-31T09:54:40.687Z,30.71
2018-05-31T09:55:40.687Z,30.72
2018-05-31T09:56:40.676Z,30.62
2018-05-31T09:57:40.943Z,30.54
2018-05-31T09:58:40.955Z,30.54
2018-05-31T09:59:40.946Z,30.45
2018-05-31T10:00:40.941Z,30.3
2018-05-31T10:01:41.032Z,30.21
2018-05-31T10:02:40.672Z,30.15
2018-05-31T10:03:40.694Z,30.15
2018-05-31T10:04:40.666Z,30.07
2018-05-31T10:05:40.400Z,30.19
2018-05-31T10:06:40.401Z,30.21
2018-05-31T10:07:40.916Z,30.19
2018-05-31T10:08:40.422Z,30.09
2018-05-31T10:09:40.927Z,30.27
2018-05-31T10:10:40.929Z,30.16
2018-05-31T10:11:40.919Z,30.33
2018-05-31T10:12:40.664Z,30.45
2018-05-31T10:13:40.916Z,30.56
2018-05-31T10:14:40.916Z,30.64
2018-05-31T10:15:40.667Z,30.68
2018-05-31T10:16:40.651Z,30.72
2018-05-31T10:17:40.384Z,30.99
2018-05-31T10:18:40.921Z,31.08
2018-05-31T10:19:40.397Z,31.33
2018-05-31T10:20:40.378Z,31.43
2018-05-31T10:21:40.917Z,31.57
2018-05-31T10:22:40.651Z,31.73
2018-05-31T10:23:40.655Z,32.03
2018-05-31T10:24:40.983Z,32.36
2018-05-31T10:25:40.918Z,32.77
2018-05-31T10:26:40.692Z,33.03
2018-05-31T10:27:40.929Z,33.31
2018-05-31T10:28:40.932Z,33.86
2018-05-31T10:29:40.940Z,34.19
2018-05-31T10:30:40.939Z,34.36
2018-05-31T10:31:40.693Z,34.64
2018-05-31T10:32:40.685Z,34.91
2018-05-31T10:33:40.673Z,35.11
2018-05-31T10:34:40.953Z,35.48
2018-05-31T10:35:40.693Z,35.63
2018-05-31T10:36:41.375Z,35.69
2018-05-31T10:37:40.763Z,35.77
2018-05-31T10:38:40.438Z,35.97
2018-05-31T10:39:40.975Z,36.08
2018-05-31T10:40:40.972Z,36.3
2018-05-31T10:41:40.723Z,36.45
2018-05-31T10:42:40.731Z,36.57
2018-05-31T10:43:40.742Z,36.56
2018-05-31T10:44:40.736Z,36.65
2018-05-31T10:45:41.003Z,36.85
2018-05-31T10:46:40.812Z,36.98
2018-05-31T10:47:40.761Z,37.1
2018-05-31T10:48:40.766Z,37.28
2018-05-31T10:49:40.763Z,37.29
2018-05-31T10:50:41.040Z,37.33
2018-05-31T10:51:41.037Z,37.24
2018-05-31T10:52:40.799Z,37.36
2018-05-31T10:53:41.047Z,37.61
2018-05-31T10:54:40.798Z,37.77
2018-05-31T10:55:41.075Z,37.51
2018-05-31T10:56:40.803Z,37.43
2018-05-31T10:57:40.812Z,37.38
2018-05-31T10:58:40.557Z,37.46
2018-05-31T10:59:40.566Z,37.55
2018-05-31T11:00:40.831Z,37.13
2018-05-31T11:01:41.110Z,36.14
2018-05-31T11:02:40.857Z,35.6
2018-05-31T11:03:40.850Z,35.25
2018-05-31T11:04:41.175Z,34.91
2018-05-31T11:05:41.143Z,34.7
2018-05-31T11:06:41.138Z,34.58
2018-05-31T11:07:40.628Z,34.94
2018-05-31T11:08:41.282Z,35.28
2018-05-31T11:09:40.890Z,35.55
2018-05-31T11:10:40.634Z,35.92
2018-05-31T11:11:40.632Z,36.17
2018-05-31T11:12:40.904Z,36.52
2018-05-31T11:13:40.910Z,36.8
2018-05-31T11:14:41.175Z,37.09
2018-05-31T11:15:40.921Z,37.31
2018-05-31T11:16:41.189Z,37.48
2018-05-31T11:17:41.238Z,37.59
2018-05-31T11:18:40.950Z,37.41
2018-05-31T11:19:41.212Z,37.28
2018-05-31T11:20:40.973Z,37.28
2018-05-31T11:21:41.076Z,37.55
2018-05-31T11:22:40.969Z,37.61
2018-05-31T11:23:41.229Z,37.7
2018-05-31T11:24:40.972Z,37.64
2018-05-31T11:25:40.983Z,37.66
2018-05-31T11:26:40.993Z,37.73
2018-05-31T11:27:40.998Z,37.76
2018-05-31T11:28:41.277Z,37.54
2018-05-31T11:29:40.744Z,37.31
2018-05-31T11:30:41.013Z,37.28
2018-05-31T11:31:41.287Z,37.07
2018-05-31T11:32:40.761Z,36.76
2018-05-31T11:33:41.299Z,36.35
2018-05-31T11:34:41.383Z,35.93
2018-05-31T11:35:41.050Z,35.58
2018-05-31T11:36:41.328Z,35.29
2018-05-31T11:37:40.802Z,35.07
2018-05-31T11:38:41.330Z,34.84
2018-05-31T11:39:41.073Z,34.76
2018-05-31T11:40:41.076Z,34.72
2018-05-31T11:41:41.541Z,35.06
2018-05-31T11:42:41.084Z,35.36
2018-05-31T11:43:41.091Z,35.4
2018-05-31T11:44:41.109Z,35.29
2018-05-31T11:45:41.106Z,35.26
2018-05-31T11:46:41.117Z,35.26
2018-05-31T11:47:41.122Z,35.64
2018-05-31T11:48:41.377Z,35.74
2018-05-31T11:49:41.121Z,35.54
2018-05-31T11:50:41.128Z,35.69
2018-05-31T11:51:40.864Z,35.84
2018-05-31T11:52:40.867Z,35.99
2018-05-31T11:53:41.415Z,35.55
2018-05-31T11:54:41.160Z,35.26
2018-05-31T11:55:41.150Z,35.07
2018-05-31T11:56:40.889Z,34.86
2018-05-31T11:57:41.156Z,34.57
2018-05-31T11:58:41.162Z,34.34
2018-05-31T11:59:41.205Z,34.08
2018-05-31T12:00:41.532Z,33.97
2018-05-31T12:01:41.221Z,33.76
2018-05-31T12:02:41.295Z,33.6
2018-05-31T12:03:41.486Z,33.39
2018-05-31T12:04:41.450Z,33.31
2018-05-31T12:05:41.182Z,33.11
2018-05-31T12:06:40.923Z,33.04
2018-05-31T12:07:41.193Z,32.88
2018-05-31T12:08:41.459Z,32.7
2018-05-31T12:09:40.929Z,32.48
2018-05-31T12:10:41.458Z,32.39
2018-05-31T12:11:40.934Z,32.39
2018-05-31T12:12:40.937Z,32.36
2018-05-31T12:13:41.205Z,32.39
2018-05-31T12:14:41.205Z,32.39
2018-05-31T12:15:41.467Z,32.48
2018-05-31T12:16:40.950Z,32.7
2018-05-31T12:17:41.699Z,32.62
2018-05-31T12:18:41.477Z,32.69
2018-05-31T12:19:41.475Z,32.77
2018-05-31T12:20:41.490Z,32.98
2018-05-31T12:21:41.483Z,33.22
2018-05-31T12:22:41.216Z,33.39
2018-05-31T12:23:41.212Z,33.58
2018-05-31T12:24:41.217Z,33.78
2018-05-31T12:25:41.213Z,33.9
2018-05-31T12:26:41.496Z,33.97
2018-05-31T12:27:41.219Z,33.97
2018-05-31T12:28:41.489Z,33.95
2018-05-31T12:29:41.481Z,33.8
2018-05-31T12:30:41.490Z,33.76
2018-05-31T12:31:41.232Z,33.71
2018-05-31T12:32:41.492Z,33.48
2018-05-31T12:33:41.223Z,33.49
2018-05-31T12:34:41.235Z,33.41
2018-05-31T12:35:41.494Z,33.31
2018-05-31T12:36:41.441Z,33.26
2018-05-31T12:37:41.337Z,33.19
2018-05-31T12:38:41.251Z,33.19
2018-05-31T12:39:40.971Z,32.91
2018-05-31T12:40:41.252Z,32.93
2018-05-31T12:41:41.240Z,32.8
2018-05-31T12:42:41.249Z,32.76
2018-05-31T12:43:41.507Z,32.67
2018-05-31T12:44:40.975Z,32.54
2018-05-31T12:45:41.241Z,32.49
2018-05-31T12:46:41.251Z,32.2
2018-05-31T12:47:41.300Z,32.22
2018-05-31T12:48:41.255Z,32.06
2018-05-31T12:49:40.977Z,31.93
2018-05-31T12:50:40.979Z,31.96
2018-05-31T12:51:41.509Z,31.85
2018-05-31T12:52:41.294Z,31.73
2018-05-31T12:53:41.296Z,31.79
2018-05-31T12:54:41.254Z,31.65
2018-05-31T12:55:41.240Z,31.55